Time;durP1;ratioP1;P1;durP2;ratioP2;P2;SDS_P1;SDS_P2;PMS_P1;PMS_P2;Temp;Humidity;BMP_temperature;BMP_pressure;BME280_temperature;BME280_humidity;BME280_pressure;Samples;Min_cycle;Max_cycle;Signal;HPM_P1;HPM_P2
2024/01/25 00:02:18;;;;;;;0.00;0.00;;;9.70;99.90;;;;;;5012466;28;20477;-72
2024/01/25 00:04:44;;;;;;;16.88;1.75;;;9.70;99.90;;;;;;4995479;28;20410;-72
2024/01/25 00:07:10;;;;;;;0.52;0.20;;;9.60;99.90;;;;;;4996415;28;20092;-72
2024/01/25 00:09:36;;;;;;;0.10;0.10;;;9.60;99.90;;;;;;4997379;28;20368;-72
2024/01/25 00:12:02;;;;;;;4.38;1.95;;;9.60;99.90;;;;;;5007981;28;20026;-72
2024/01/25 00:14:27;;;;;;;1.50;1.38;;;9.60;99.90;;;;;;5014931;28;20032;-72
2024/01/25 00:16:53;;;;;;;7.15;2.65;;;9.50;99.90;;;;;;5015404;28;20038;-72
2024/01/25 00:19:19;;;;;;;0.10;0.10;;;9.40;99.90;;;;;;5015282;28;20022;-72
2024/01/25 00:21:45;;;;;;;0.88;0.88;;;9.40;99.90;;;;;;5009589;28;20397;-72
2024/01/25 00:24:12;;;;;;;0.22;0.22;;;9.40;99.90;;;;;;5013085;28;20040;-72
2024/01/25 00:26:38;;;;;;;0.20;0.20;;;9.40;99.90;;;;;;5007515;28;20018;-72
2024/01/25 00:29:04;;;;;;;0.73;0.52;;;9.40;99.90;;;;;;5011047;28;20033;-72
2024/01/25 00:31:30;;;;;;;0.10;0.10;;;9.40;99.90;;;;;;5002520;28;20026;-72
2024/01/25 00:34:00;;;;;;;2.05;1.27;;;9.40;99.90;;;;;;5008890;28;20026;-72
2024/01/25 00:36:26;;;;;;;1.45;0.90;;;9.30;99.90;;;;;;5016474;28;20034;-72
2024/01/25 00:38:52;;;;;;;6.68;1.40;;;9.30;99.90;;;;;;5004672;28;20025;-72
2024/01/25 00:41:19;;;;;;;3.67;0.77;;;9.20;99.90;;;;;;4999633;28;20077;-72
2024/01/25 00:43:45;;;;;;;0.80;0.80;;;9.10;99.90;;;;;;5000990;28;20117;-72
2024/01/25 00:46:12;;;;;;;5.43;2.10;;;9.10;99.90;;;;;;4980142;28;20069;-72
2024/01/25 00:48:40;;;;;;;72.88;5.07;;;9.10;99.90;;;;;;4997404;28;20494;-72
2024/01/25 00:51:07;;;;;;;3.25;1.55;;;9.00;99.90;;;;;;5009343;28;20109;-72
2024/01/25 00:53:34;;;;;;;0.00;0.00;;;8.90;99.90;;;;;;5002684;28;20029;-72
2024/01/25 00:56:00;;;;;;;0.00;0.00;;;9.10;99.90;;;;;;5006272;28;20033;-72
2024/01/25 00:58:26;;;;;;;9.13;3.08;;;9.30;99.90;;;;;;5015511;28;20029;-72
2024/01/25 01:00:52;;;;;;;0.08;0.08;;;9.20;99.90;;;;;;5002024;28;20445;-72
2024/01/25 01:03:22;;;;;;;0.10;0.10;;;9.30;99.90;;;;;;4997677;28;20058;-73
2024/01/25 01:05:48;;;;;;;0.05;0.05;;;9.20;99.90;;;;;;4997424;28;20026;-72
2024/01/25 01:08:14;;;;;;;0.00;0.00;;;9.00;99.90;;;;;;5003813;28;20037;-72
2024/01/25 01:10:40;;;;;;;2.38;0.88;;;9.10;99.90;;;;;;5012534;28;20565;-72
2024/01/25 01:13:06;;;;;;;0.35;0.35;;;9.00;99.90;;;;;;5013146;28;20545;-72
2024/01/25 01:15:31;;;;;;;1.27;0.93;;;8.80;99.90;;;;;;5012395;28;20085;-72
2024/01/25 01:17:57;;;;;;;0.00;0.00;;;8.90;99.90;;;;;;5011409;28;20034;-72
2024/01/25 01:20:23;;;;;;;0.03;0.03;;;9.00;99.90;;;;;;5014146;28;20018;-72
2024/01/25 01:22:50;;;;;;;0.00;0.00;;;8.80;99.90;;;;;;5012118;28;20034;-72
2024/01/25 01:25:16;;;;;;;0.47;0.47;;;8.70;99.90;;;;;;5008401;28;20026;-72
2024/01/25 01:27:42;;;;;;;4.85;1.55;;;8.90;99.90;;;;;;5007982;28;20133;-73
2024/01/25 01:30:08;;;;;;;0.47;0.30;;;8.80;99.90;;;;;;5005300;28;20050;-73
2024/01/25 01:32:34;;;;;;;0.10;0.10;;;8.80;99.90;;;;;;4994656;28;20022;-72
2024/01/25 01:35:00;;;;;;;0.00;0.00;;;8.70;99.90;;;;;;5001475;28;20026;-72
2024/01/25 01:37:26;;;;;;;0.03;0.03;;;8.60;99.90;;;;;;5003525;28;20378;-73
2024/01/25 01:39:55;;;;;;;0.10;0.10;;;8.70;99.90;;;;;;4998806;28;20034;-73
2024/01/25 01:42:22;;;;;;;0.00;0.00;;;8.50;99.90;;;;;;4999475;28;20590;-72
2024/01/25 01:44:50;;;;;;;0.10;0.10;;;8.50;99.90;;;;;;4996810;28;20091;-73
2024/01/25 01:47:16;;;;;;;0.00;0.00;;;8.50;99.90;;;;;;4998552;28;20026;-73
2024/01/25 01:49:42;;;;;;;0.90;0.73;;;8.40;99.90;;;;;;5007980;28;20014;-72
2024/01/25 01:52:09;;;;;;;10.57;2.45;;;8.30;99.90;;;;;;5003735;28;20058;-72
2024/01/25 01:54:36;;;;;;;0.08;0.08;;;8.20;99.90;;;;;;5005472;28;20097;-73
2024/01/25 01:57:03;;;;;;;0.68;0.65;;;8.30;99.90;;;;;;5015141;28;20043;-72
2024/01/25 01:59:29;;;;;;;0.00;0.00;;;8.30;99.90;;;;;;4998203;28;20037;-72
2024/01/25 02:01:55;;;;;;;0.00;0.00;;;8.50;99.90;;;;;;4997482;28;20026;-72
2024/01/25 02:04:21;;;;;;;0.28;0.20;;;8.50;99.90;;;;;;4998299;28;20022;-72
2024/01/25 02:06:47;;;;;;;0.10;0.10;;;8.50;99.90;;;;;;4995485;28;20031;-72
2024/01/25 02:09:13;;;;;;;0.10;0.10;;;8.50;99.90;;;;;;5009511;28;20030;-72
2024/01/25 02:11:39;;;;;;;3.72;1.75;;;8.40;99.90;;;;;;5012689;28;20026;-73
2024/01/25 02:14:06;;;;;;;0.00;0.00;;;8.30;99.90;;;;;;5008859;28;20383;-73
2024/01/25 02:16:32;;;;;;;0.03;0.03;;;8.20;99.90;;;;;;5011814;28;20490;-72
2024/01/25 02:18:58;;;;;;;2.10;2.00;;;8.20;99.90;;;;;;5012853;28;20117;-72
2024/01/25 02:21:24;;;;;;;0.75;0.38;;;8.20;99.90;;;;;;5008922;28;20025;-72
2024/01/25 02:23:50;;;;;;;0.10;0.10;;;8.00;99.90;;;;;;5010608;28;20037;-72
2024/01/25 02:26:16;;;;;;;0.00;0.00;;;8.00;99.90;;;;;;5006176;28;20045;-72
2024/01/25 02:28:42;;;;;;;0.00;0.00;;;8.10;99.90;;;;;;5006907;28;20018;-72
2024/01/25 02:31:08;;;;;;;0.00;0.00;;;8.10;99.90;;;;;;5009077;28;20034;-72
2024/01/25 02:33:33;;;;;;;0.00;0.00;;;8.20;99.90;;;;;;5002631;28;20026;-74
2024/01/25 02:35:59;;;;;;;0.00;0.00;;;8.20;99.90;;;;;;5001200;28;20034;-74
2024/01/25 02:38:25;;;;;;;0.00;0.00;;;8.00;99.90;;;;;;4998355;28;20109;-74
2024/01/25 02:40:53;;;;;;;0.00;0.00;;;8.00;99.90;;;;;;4998631;28;20121;-74
2024/01/25 02:43:19;;;;;;;0.32;0.25;;;8.00;99.90;;;;;;4994505;28;20105;-74
2024/01/25 02:45:45;;;;;;;0.10;0.10;;;8.00;99.90;;;;;;4994834;28;20037;-74
2024/01/25 02:48:11;;;;;;;0.10;0.10;;;7.70;99.90;;;;;;5002740;28;20018;-73
2024/01/25 02:50:37;;;;;;;0.43;0.35;;;7.60;99.90;;;;;;5004644;28;20032;-73
2024/01/25 02:53:03;;;;;;;0.00;0.00;;;7.60;99.90;;;;;;5009648;28;20030;-74
2024/01/25 02:55:29;;;;;;;0.10;0.10;;;7.80;99.90;;;;;;5000364;28;20034;-74
2024/01/25 02:57:54;;;;;;;0.00;0.00;;;7.70;99.90;;;;;;4995709;28;20037;-72
2024/01/25 03:00:21;;;;;;;0.00;0.00;;;7.40;99.90;;;;;;5003744;28;20026;-72
2024/01/25 03:02:47;;;;;;;0.00;0.00;;;7.40;99.90;;;;;;4998793;28;20490;-72
2024/01/25 03:05:13;;;;;;;0.00;0.00;;;7.60;99.90;;;;;;4995148;28;20022;-72
2024/01/25 03:07:38;;;;;;;0.00;0.00;;;7.70;99.90;;;;;;4994175;28;20105;-72
2024/01/25 03:10:05;;;;;;;0.00;0.00;;;7.60;99.90;;;;;;5001508;28;20057;-72
2024/01/25 03:12:30;;;;;;;0.00;0.00;;;7.60;99.90;;;;;;5009982;28;20510;-71
2024/01/25 03:14:56;;;;;;;0.00;0.00;;;7.60;99.90;;;;;;5010087;28;20025;-72
2024/01/25 03:17:22;;;;;;;0.00;0.00;;;7.50;99.90;;;;;;5012541;28;20038;-72
2024/01/25 03:19:48;;;;;;;2.72;1.50;;;7.30;99.90;;;;;;5009123;28;20019;-71
2024/01/25 03:22:14;;;;;;;0.00;0.00;;;7.00;99.90;;;;;;5010445;28;20041;-72
2024/01/25 03:24:39;;;;;;;3.88;3.53;;;7.00;99.90;;;;;;5005533;28;20551;-72
2024/01/25 03:27:12;;;;;;;0.20;0.20;;;7.20;99.90;;;;;;5007573;28;20018;-72
2024/01/25 03:29:42;;;;;;;0.00;0.00;;;7.40;99.90;;;;;;5002065;28;20109;-72
2024/01/25 03:32:12;;;;;;;0.08;0.08;;;7.40;99.90;;;;;;5004906;28;20030;-72
2024/01/25 03:34:38;;;;;;;0.10;0.10;;;7.30;99.90;;;;;;5010766;28;20045;-73
2024/01/25 03:37:04;;;;;;;0.00;0.00;;;7.00;99.90;;;;;;4994965;28;20137;-72
2024/01/25 03:39:30;;;;;;;0.00;0.00;;;7.10;99.90;;;;;;5012070;28;20065;-72
2024/01/25 03:41:55;;;;;;;0.10;0.10;;;7.30;99.90;;;;;;5010525;28;20552;-72
2024/01/25 03:44:21;;;;;;;0.10;0.10;;;7.20;99.90;;;;;;5010247;28;20026;-72
2024/01/25 03:46:47;;;;;;;0.10;0.10;;;7.10;99.90;;;;;;5011390;28;20121;-72
2024/01/25 03:49:13;;;;;;;0.00;0.00;;;6.90;99.90;;;;;;5008256;28;20049;-72
2024/01/25 03:51:39;;;;;;;0.10;0.10;;;7.10;99.90;;;;;;5038110;28;20026;-72
2024/01/25 03:54:05;;;;;;;0.00;0.00;;;7.20;99.90;;;;;;5011476;28;20026;-71
2024/01/25 03:56:30;;;;;;;0.00;0.00;;;7.20;99.90;;;;;;5007216;28;20490;-72
2024/01/25 03:58:56;;;;;;;0.00;0.00;;;7.20;99.90;;;;;;5011199;28;20072;-72
2024/01/25 04:01:22;;;;;;;0.00;0.00;;;7.30;99.90;;;;;;5002822;28;20475;-72
2024/01/25 04:03:48;;;;;;;0.08;0.08;;;7.30;99.90;;;;;;5011448;28;20022;-72
2024/01/25 04:06:14;;;;;;;0.00;0.00;;;7.20;99.90;;;;;;5000398;28;20034;-72
2024/01/25 04:08:39;;;;;;;0.00;0.00;;;7.10;99.90;;;;;;5010016;28;20030;-72
2024/01/25 04:11:05;;;;;;;0.00;0.00;;;7.00;99.90;;;;;;5011147;28;20056;-72
2024/01/25 04:13:31;;;;;;;0.00;0.00;;;6.70;99.90;;;;;;5006910;28;20093;-72
2024/01/25 04:15:57;;;;;;;0.10;0.10;;;6.40;99.90;;;;;;5008722;28;20046;-72
2024/01/25 04:18:22;;;;;;;0.10;0.10;;;6.50;99.90;;;;;;5003188;28;20018;-72
2024/01/25 04:20:50;;;;;;;0.00;0.00;;;6.60;99.90;;;;;;5006381;28;20026;-72
2024/01/25 04:23:16;;;;;;;0.00;0.00;;;7.00;99.90;;;;;;5000185;28;20097;-72
2024/01/25 04:25:42;;;;;;;0.00;0.00;;;6.90;99.90;;;;;;5002413;28;20025;-71
2024/01/25 04:28:08;;;;;;;0.00;0.00;;;6.90;99.90;;;;;;4996918;28;20041;-71
2024/01/25 04:30:34;;;;;;;0.00;0.00;;;6.80;99.90;;;;;;4998013;28;20026;-72
2024/01/25 04:33:00;;;;;;;0.00;0.00;;;6.90;99.90;;;;;;4995016;28;20033;-72
2024/01/25 04:35:26;;;;;;;0.00;0.00;;;6.90;99.90;;;;;;4993940;28;20035;-72
2024/01/25 04:37:51;;;;;;;0.00;0.00;;;6.90;99.90;;;;;;4999123;28;20030;-74
2024/01/25 04:40:17;;;;;;;0.10;0.10;;;6.80;99.90;;;;;;5012217;28;20092;-72
2024/01/25 04:42:43;;;;;;;0.00;0.00;;;6.70;99.90;;;;;;5009198;28;20050;-72
2024/01/25 04:45:09;;;;;;;0.15;0.15;;;6.70;99.90;;;;;;5012231;28;20481;-71
2024/01/25 04:47:38;;;;;;;0.08;0.08;;;6.70;99.90;;;;;;5007005;28;20022;-71
2024/01/25 04:50:04;;;;;;;0.00;0.00;;;6.80;99.90;;;;;;4997548;28;20430;-72
2024/01/25 04:52:30;;;;;;;0.00;0.00;;;6.90;99.90;;;;;;5011501;28;20026;-74
2024/01/25 04:54:56;;;;;;;0.00;0.00;;;6.90;99.90;;;;;;4998474;28;20365;-73
2024/01/25 04:57:22;;;;;;;0.10;0.10;;;6.80;99.90;;;;;;4995845;28;20034;-72
2024/01/25 04:59:47;;;;;;;0.00;0.00;;;6.70;99.90;;;;;;5012363;28;20038;-74
2024/01/25 05:02:13;;;;;;;0.00;0.00;;;6.60;99.90;;;;;;5013746;28;20032;-71
2024/01/25 05:04:40;;;;;;;0.88;0.65;;;6.40;99.90;;;;;;5009810;28;20018;-74
2024/01/25 05:07:05;;;;;;;0.20;0.17;;;6.40;99.90;;;;;;5011904;28;20364;-73
2024/01/25 05:09:31;;;;;;;0.13;0.13;;;6.20;99.90;;;;;;5006157;28;20038;-73
2024/01/25 05:11:58;;;;;;;1.35;1.35;;;6.30;99.90;;;;;;5007853;28;20048;-74
2024/01/25 05:14:25;;;;;;;0.00;0.00;;;6.30;99.90;;;;;;5003554;28;20483;-74
2024/01/25 05:16:51;;;;;;;0.00;0.00;;;6.60;99.90;;;;;;5005071;28;20092;-72
2024/01/25 05:19:17;;;;;;;0.00;0.00;;;6.70;99.90;;;;;;5000996;28;20387;-72
2024/01/25 05:21:42;;;;;;;0.00;0.00;;;6.80;99.90;;;;;;5001138;28;20030;-71
2024/01/25 05:24:09;;;;;;;1.08;0.90;;;6.50;99.90;;;;;;4998862;28;20018;-71
2024/01/25 05:26:35;;;;;;;0.00;0.00;;;6.40;99.90;;;;;;4997062;28;20022;-72
2024/01/25 05:29:01;;;;;;;0.28;0.28;;;6.20;99.90;;;;;;5009667;28;20038;-72
2024/01/25 05:31:27;;;;;;;0.10;0.10;;;6.30;99.90;;;;;;5006979;28;20041;-73
2024/01/25 05:33:52;;;;;;;0.98;0.98;;;6.50;99.90;;;;;;5012938;28;20493;-74
2024/01/25 05:36:19;;;;;;;0.00;0.00;;;6.70;99.90;;;;;;5012003;28;20041;-74
2024/01/25 05:38:45;;;;;;;0.10;0.10;;;6.80;99.90;;;;;;5007408;28;20019;-74
2024/01/25 05:41:11;;;;;;;0.00;0.00;;;6.90;99.90;;;;;;5009608;28;20080;-75
2024/01/25 05:43:37;;;;;;;0.05;0.05;;;7.00;99.90;;;;;;5012822;28;20030;-74
2024/01/25 05:46:03;;;;;;;0.20;0.20;;;7.00;99.90;;;;;;5010985;28;20034;-74
2024/01/25 05:48:29;;;;;;;0.00;0.00;;;7.00;99.90;;;;;;5006491;28;20022;-73
2024/01/25 05:50:55;;;;;;;0.00;0.00;;;7.00;99.90;;;;;;4980604;28;20037;-74
2024/01/25 05:53:21;;;;;;;0.00;0.00;;;6.90;99.90;;;;;;4997233;28;20467;-74
2024/01/25 05:55:47;;;;;;;0.57;0.57;;;6.80;99.90;;;;;;4993993;28;20440;-74
2024/01/25 05:58:12;;;;;;;32.58;2.67;;;6.80;99.90;;;;;;5014175;28;20046;-74
2024/01/25 06:00:38;;;;;;;12.70;0.63;;;6.80;99.90;;;;;;5012606;28;20034;-74
2024/01/25 06:03:04;;;;;;;0.17;0.17;;;6.70;99.90;;;;;;4995810;28;20113;-74
2024/01/25 06:05:30;;;;;;;0.22;0.22;;;6.70;99.90;;;;;;5010128;28;20049;-74
2024/01/25 06:07:56;;;;;;;0.00;0.00;;;6.50;99.90;;;;;;5004300;28;20074;-73
2024/01/25 06:10:22;;;;;;;0.00;0.00;;;6.80;99.90;;;;;;5008735;28;20034;-73
2024/01/25 06:12:47;;;;;;;26.10;4.95;;;6.80;99.90;;;;;;5001927;28;20033;-73
2024/01/25 06:15:13;;;;;;;0.05;0.05;;;6.90;99.90;;;;;;5005305;28;20446;-74
2024/01/25 06:17:40;;;;;;;1.13;0.65;;;7.00;99.90;;;;;;5009565;28;20046;-74
2024/01/25 06:20:06;;;;;;;2.30;1.77;;;7.10;99.90;;;;;;5001304;28;20430;-74
2024/01/25 06:22:32;;;;;;;0.32;0.32;;;7.20;99.90;;;;;;4996996;28;20029;-74
2024/01/25 06:24:58;;;;;;;4.63;1.17;;;7.10;99.90;;;;;;4997123;28;20035;-74
2024/01/25 06:27:24;;;;;;;5.13;1.13;;;7.10;99.90;;;;;;4993643;28;20106;-74
2024/01/25 06:29:50;;;;;;;0.00;0.00;;;6.90;99.90;;;;;;5022255;28;20426;-74
2024/01/25 06:32:16;;;;;;;1.95;1.50;;;6.80;99.90;;;;;;5011376;28;20022;-75
2024/01/25 06:34:41;;;;;;;15.00;2.70;;;6.70;99.90;;;;;;5009916;28;20052;-74
2024/01/25 06:37:07;;;;;;;4.53;3.10;;;6.80;99.90;;;;;;5003269;28;20473;-74
2024/01/25 06:39:34;;;;;;;3.00;1.02;;;6.80;99.90;;;;;;5007555;28;20152;-74
2024/01/25 06:42:00;;;;;;;0.00;0.00;;;6.80;99.90;;;;;;5008736;28;20049;-75
2024/01/25 06:44:25;;;;;;;0.00;0.00;;;6.80;99.90;;;;;;5008106;28;20017;-75
2024/01/25 06:46:51;;;;;;;4.97;0.93;;;6.80;99.90;;;;;;5007258;28;20049;-73
2024/01/25 06:49:17;;;;;;;0.00;0.00;;;6.80;99.90;;;;;;5006063;28;20033;-73
2024/01/25 06:51:43;;;;;;;0.80;0.68;;;6.90;99.90;;;;;;4999518;28;20038;-76
2024/01/25 06:54:08;;;;;;;3.20;2.55;;;6.90;99.90;;;;;;5012593;28;20022;-76
2024/01/25 06:56:34;;;;;;;2.95;1.73;;;7.00;99.90;;;;;;5008794;28;20168;-73
2024/01/25 06:59:00;;;;;;;0.10;0.10;;;7.10;99.90;;;;;;5007901;28;20117;-75
2024/01/25 07:01:27;;;;;;;0.73;0.73;;;7.10;99.90;;;;;;5004047;28;20121;-74
2024/01/25 07:03:53;;;;;;;0.00;0.00;;;7.20;99.90;;;;;;5008184;28;20025;-74
2024/01/25 07:06:19;;;;;;;0.28;0.28;;;7.50;99.90;;;;;;5001606;28;20501;-73
2024/01/25 07:08:46;;;;;;;2.13;0.50;;;7.20;99.90;;;;;;5003590;28;20025;-73
2024/01/25 07:11:11;;;;;;;0.40;0.40;;;7.00;99.90;;;;;;5004734;28;20101;-73
2024/01/25 07:13:38;;;;;;;0.00;0.00;;;7.00;99.90;;;;;;5008593;28;20536;-74
2024/01/25 07:16:04;;;;;;;0.28;0.28;;;7.10;99.90;;;;;;5000849;28;20185;-74
2024/01/25 07:18:30;;;;;;;0.63;0.63;;;7.10;99.90;;;;;;4990653;28;20079;-73
2024/01/25 07:20:55;;;;;;;0.00;0.00;;;7.30;99.90;;;;;;4991050;28;20550;-73
2024/01/25 07:23:22;;;;;;;0.00;0.00;;;7.40;99.90;;;;;;5001922;28;20097;-73
2024/01/25 07:25:48;;;;;;;0.00;0.00;;;7.50;99.90;;;;;;5004039;28;20030;-73
2024/01/25 07:28:13;;;;;;;0.00;0.00;;;7.60;99.90;;;;;;4990432;28;20409;-73
2024/01/25 07:30:39;;;;;;;0.00;0.00;;;7.50;99.90;;;;;;5007056;28;20028;-73
2024/01/25 07:33:05;;;;;;;0.03;0.03;;;7.40;99.90;;;;;;5005048;28;20121;-73
2024/01/25 07:35:32;;;;;;;0.20;0.20;;;7.40;99.90;;;;;;5002802;28;20026;-73
2024/01/25 07:37:57;;;;;;;0.00;0.00;;;7.40;99.90;;;;;;5003687;28;20397;-73
2024/01/25 07:40:23;;;;;;;0.00;0.00;;;7.40;99.90;;;;;;5005329;28;20006;-74
2024/01/25 07:42:49;;;;;;;0.45;0.45;;;7.50;99.90;;;;;;5008502;28;20437;-73
2024/01/25 07:45:15;;;;;;;13.73;2.60;;;7.40;99.90;;;;;;5007990;28;20022;-74
2024/01/25 07:47:42;;;;;;;2.58;0.52;;;7.20;99.90;;;;;;5004492;28;20050;-74
2024/01/25 07:50:08;;;;;;;1.55;0.20;;;7.20;99.90;;;;;;5005675;28;20405;-74
2024/01/25 07:52:34;;;;;;;0.00;0.00;;;7.10;99.90;;;;;;5002450;28;20056;-75
2024/01/25 07:54:59;;;;;;;1.45;0.50;;;7.40;99.90;;;;;;4993821;28;20050;-73
2024/01/25 07:57:25;;;;;;;0.28;0.28;;;7.60;99.90;;;;;;4989468;28;20042;-73
2024/01/25 07:59:51;;;;;;;5.38;0.38;;;7.40;99.90;;;;;;5007397;28;20060;-74
2024/01/25 08:02:17;;;;;;;1.65;1.30;;;7.60;99.90;;;;;;5006867;28;20039;-73
2024/01/25 08:04:43;;;;;;;1.02;0.88;;;7.70;99.90;;;;;;5002262;28;20018;-74
2024/01/25 08:07:08;;;;;;;0.10;0.10;;;7.60;99.90;;;;;;5007355;28;20325;-73
2024/01/25 08:09:34;;;;;;;0.05;0.05;;;7.30;99.90;;;;;;5004017;28;20034;-73
2024/01/25 08:12:00;;;;;;;0.20;0.20;;;7.40;99.90;;;;;;5002329;28;20026;-73
2024/01/25 08:14:26;;;;;;;0.52;0.52;;;7.30;99.90;;;;;;5007681;28;20033;-73
2024/01/25 08:16:52;;;;;;;0.17;0.17;;;7.30;99.90;;;;;;5001972;28;20045;-73
2024/01/25 08:19:18;;;;;;;0.03;0.03;;;7.40;99.90;;;;;;4994587;28;20049;-73
2024/01/25 08:21:45;;;;;;;0.28;0.28;;;7.50;99.90;;;;;;5019293;28;20112;-73
2024/01/25 08:24:11;;;;;;;0.10;0.10;;;7.60;99.90;;;;;;5007000;28;20033;-72
2024/01/25 08:26:37;;;;;;;2.47;2.28;;;7.60;99.90;;;;;;5001624;28;20040;-73
2024/01/25 08:29:03;;;;;;;0.00;0.00;;;7.70;99.90;;;;;;5000371;28;20030;-73
2024/01/25 08:31:28;;;;;;;3.83;1.83;;;7.70;99.90;;;;;;5027301;28;20057;-72
2024/01/25 08:33:54;;;;;;;0.55;0.55;;;7.60;99.90;;;;;;5009901;28;20497;-73
2024/01/25 08:36:20;;;;;;;0.35;0.35;;;7.70;99.90;;;;;;5007937;28;20025;-73
2024/01/25 08:38:46;;;;;;;0.00;0.00;;;7.70;99.90;;;;;;5020427;28;20042;-74
2024/01/25 08:41:15;;;;;;;0.30;0.30;;;7.80;99.90;;;;;;5009847;28;20529;-73
2024/01/25 08:43:41;;;;;;;0.00;0.00;;;7.80;99.90;;;;;;5011746;28;20061;-74
2024/01/25 08:46:07;;;;;;;0.10;0.10;;;7.90;99.90;;;;;;5009968;28;20041;-73
2024/01/25 08:48:33;;;;;;;8.15;1.50;;;7.80;99.90;;;;;;5008137;28;20108;-73
2024/01/25 08:50:59;;;;;;;0.70;0.65;;;7.90;99.90;;;;;;5010903;28;20533;-74
2024/01/25 08:53:27;;;;;;;5.72;0.20;;;7.80;99.90;;;;;;5004818;28;20034;-73
2024/01/25 08:55:56;;;;;;;0.10;0.10;;;8.00;99.90;;;;;;4998509;28;20030;-73
2024/01/25 08:58:22;;;;;;;29.05;2.20;;;7.90;99.90;;;;;;5005569;28;20065;-73
2024/01/25 09:00:48;;;;;;;0.00;0.00;;;7.90;99.90;;;;;;5004155;28;20029;-72
2024/01/25 09:03:15;;;;;;;0.03;0.03;;;7.90;99.90;;;;;;5008790;28;20105;-74
2024/01/25 09:05:44;;;;;;;15.60;2.20;;;7.90;99.90;;;;;;5000122;28;20423;-73
2024/01/25 09:08:14;;;;;;;0.10;0.10;;;7.70;99.90;;;;;;5014212;28;20034;-73
2024/01/25 09:10:41;;;;;;;1.83;1.75;;;7.80;99.90;;;;;;5009997;28;20113;-74
2024/01/25 09:13:08;;;;;;;0.10;0.10;;;8.10;99.90;;;;;;5005477;28;20096;-77
2024/01/25 09:15:34;;;;;;;6.13;1.08;;;8.10;99.90;;;;;;5005093;28;20030;-74
2024/01/25 09:18:00;;;;;;;3.95;1.10;;;8.20;99.90;;;;;;4992166;28;20030;-74
2024/01/25 09:20:26;;;;;;;0.55;0.43;;;8.30;99.90;;;;;;5010321;28;20048;-74
2024/01/25 09:22:55;;;;;;;0.85;0.85;;;8.30;99.90;;;;;;5005200;28;20485;-73
2024/01/25 09:25:21;;;;;;;16.17;0.75;;;8.50;99.90;;;;;;4999648;28;20022;-77
2024/01/25 09:27:47;;;;;;;1.48;1.30;;;8.30;99.90;;;;;;5006920;28;20056;-74
2024/01/25 09:30:14;;;;;;;4.57;1.83;;;8.20;99.90;;;;;;5010517;28;20026;-75
2024/01/25 09:32:39;;;;;;;0.10;0.10;;;8.40;99.90;;;;;;5006464;28;20073;-75
2024/01/25 09:35:06;;;;;;;0.47;0.47;;;8.40;99.90;;;;;;5004439;28;20034;-74
2024/01/25 09:37:31;;;;;;;0.57;0.57;;;8.30;99.90;;;;;;5003989;28;20073;-74
2024/01/25 09:40:00;;;;;;;0.30;0.30;;;8.40;99.90;;;;;;4996279;28;20062;-74
2024/01/25 09:42:26;;;;;;;2.33;0.80;;;8.60;99.90;;;;;;5008148;28;20029;-74
2024/01/25 09:44:54;;;;;;;3.05;1.58;;;8.50;99.90;;;;;;5009883;28;20699;-75
2024/01/25 09:47:21;;;;;;;0.60;0.55;;;8.40;99.90;;;;;;5006418;28;20375;-74
2024/01/25 09:49:47;;;;;;;3.05;1.33;;;8.40;99.90;;;;;;5006420;28;20029;-74
2024/01/25 09:52:13;;;;;;;9.45;3.28;;;8.40;99.90;;;;;;5004153;28;20022;-75
2024/01/25 09:54:40;;;;;;;0.60;0.60;;;8.30;99.90;;;;;;5007721;28;20398;-73
2024/01/25 09:57:17;;;;;;;1.17;1.05;;;8.20;99.90;;;;;;4974344;28;20125;-74
2024/01/25 09:59:44;;;;;;;3.33;2.78;;;8.30;99.90;;;;;;5006595;28;20022;-74
2024/01/25 10:02:11;;;;;;;3.67;1.33;;;8.20;99.90;;;;;;5008696;28;20053;-73
2024/01/25 10:04:37;;;;;;;0.98;0.80;;;8.10;99.90;;;;;;5009969;28;20029;-79
2024/01/25 10:07:03;;;;;;;1.40;1.30;;;8.30;99.90;;;;;;5008684;28;20018;-72
2024/01/25 10:09:38;;;;;;;1.13;0.32;;;8.50;99.90;;;;;;5000193;28;20406;-75
2024/01/25 10:12:05;;;;;;;0.00;0.00;;;8.50;99.90;;;;;;5001884;28;20044;-75
2024/01/25 10:14:31;;;;;;;2.17;1.63;;;8.50;99.90;;;;;;5001851;28;20133;-75
2024/01/25 10:16:58;;;;;;;0.55;0.55;;;8.50;99.90;;;;;;5005617;28;20045;-75
2024/01/25 10:19:24;;;;;;;0.65;0.55;;;8.30;99.90;;;;;;4998922;28;20025;-75
2024/01/25 10:21:50;;;;;;;0.68;0.68;;;8.40;99.90;;;;;;4999991;28;20091;-75
2024/01/25 10:24:16;;;;;;;0.00;0.00;;;8.40;99.90;;;;;;5004143;28;20021;-75
2024/01/25 10:26:42;;;;;;;6.63;2.17;;;8.30;99.90;;;;;;5002256;28;20014;-75
2024/01/25 10:29:09;;;;;;;2.42;2.05;;;8.30;99.90;;;;;;4991606;28;20038;-75
2024/01/25 10:31:42;;;;;;;4.82;3.20;;;8.30;99.90;;;;;;5006040;28;20525;-75
2024/01/25 10:34:13;;;;;;;7.57;1.55;;;8.30;99.90;;;;;;5008393;28;20125;-75
2024/01/25 10:36:40;;;;;;;3.53;1.42;;;8.30;99.90;;;;;;5004399;28;20045;-79
2024/01/25 10:39:08;;;;;;;0.32;0.32;;;8.30;99.90;;;;;;4984161;28;20026;-76
2024/01/25 10:41:34;;;;;;;9.90;2.03;;;8.60;99.90;;;;;;5021639;28;20029;-75
2024/01/25 10:44:01;;;;;;;5.40;4.85;;;8.50;99.90;;;;;;5008086;28;20030;-75
2024/01/25 10:46:29;;;;;;;3.58;2.20;;;8.40;99.90;;;;;;5010821;28;20052;-76
2024/01/25 10:49:01;;;;;;;1.65;1.33;;;8.30;99.90;;;;;;4994304;28;20125;-75
2024/01/25 10:51:27;;;;;;;;;;;8.10;99.90;;;;;;5007571;28;20038;-74
2024/01/25 10:53:54;;;;;;;0.17;0.15;;;8.30;99.90;;;;;;4999789;28;20000;-76
2024/01/25 10:56:21;;;;;;;3.55;2.65;;;8.40;99.90;;;;;;4996880;28;20029;-75
2024/01/25 10:58:47;;;;;;;2.17;1.58;;;8.50;99.90;;;;;;5008742;28;20038;-75
2024/01/25 11:01:13;;;;;;;1.20;0.82;;;8.50;99.90;;;;;;5005608;28;20081;-74
2024/01/25 11:03:40;;;;;;;4.18;1.95;;;8.60;99.90;;;;;;5006873;28;20018;-74
2024/01/25 11:06:11;;;;;;;8.70;3.90;;;8.70;99.90;;;;;;5005367;28;20544;-74
2024/01/25 11:08:38;;;;;;;4.50;1.95;;;8.60;99.90;;;;;;4995802;28;20022;-74
2024/01/25 11:11:10;;;;;;;2.25;2.08;;;8.60;99.90;;;;;;5003679;28;20065;-74
2024/01/25 11:13:40;;;;;;;;;;;8.70;99.90;;;;;;5018287;28;20037;-74
2024/01/25 11:16:27;;;;;;;0.80;0.80;;;9.00;99.90;;;;;;5004075;28;19920;-74
2024/01/25 11:18:55;;;;;;;2.38;0.93;;;9.00;99.90;;;;;;4994967;28;20121;-74
2024/01/25 11:21:28;;;;;;;12.05;1.92;;;9.00;99.90;;;;;;4993191;28;20039;-74
2024/01/25 11:24:01;;;;;;;2.90;2.15;;;8.90;99.90;;;;;;5003205;28;20391;-75
2024/01/25 11:26:27;;;;;;;1.05;0.95;;;9.00;99.90;;;;;;4996664;28;20029;-74
2024/01/25 11:28:53;;;;;;;1.38;0.95;;;9.10;99.90;;;;;;5004010;28;20073;-75
2024/01/25 11:31:19;;;;;;;6.78;3.55;;;9.20;99.90;;;;;;4989534;28;20117;-73
2024/01/25 11:33:46;;;;;;;1.55;1.23;;;9.30;99.90;;;;;;5001736;28;20072;-73
2024/01/25 11:36:11;;;;;;;0.40;0.40;;;9.30;99.90;;;;;;5006948;28;20651;-72
2024/01/25 11:38:37;;;;;;;4.47;1.08;;;9.40;99.90;;;;;;5006296;28;20036;-74
2024/01/25 11:41:03;;;;;;;1.35;1.08;;;9.50;99.90;;;;;;4990516;28;20037;-75
2024/01/25 11:43:29;;;;;;;11.50;3.03;;;9.40;99.90;;;;;;5010589;28;20112;-75
2024/01/25 11:45:55;;;;;;;5.53;2.83;;;9.40;99.90;;;;;;5009396;28;20502;-75
2024/01/25 11:48:21;;;;;;;19.52;2.40;;;9.30;99.90;;;;;;5006173;28;20018;-75
2024/01/25 11:50:48;;;;;;;1.30;1.13;;;9.40;99.90;;;;;;4996077;28;20126;-75
2024/01/25 11:53:14;;;;;;;0.10;0.10;;;9.60;99.90;;;;;;4996912;28;20022;-75
2024/01/25 11:55:39;;;;;;;8.20;3.35;;;9.90;99.90;;;;;;4993833;28;20034;-77
2024/01/25 11:58:06;;;;;;;0.68;0.45;;;10.00;99.90;;;;;;4995130;28;20042;-81
2024/01/25 12:00:32;;;;;;;0.63;0.63;;;10.10;99.90;;;;;;5011261;28;20098;-85
2024/01/25 12:02:58;;;;;;;0.55;0.47;;;10.10;99.90;;;;;;5010546;28;20478;-84
2024/01/25 12:05:24;;;;;;;17.23;4.63;;;10.20;99.90;;;;;;5013296;28;20136;-85
2024/01/25 12:07:49;;;;;;;0.20;0.20;;;10.20;99.90;;;;;;5007671;28;20049;-85
2024/01/25 12:10:17;;;;;;;0.70;0.70;;;10.00;99.90;;;;;;5010943;28;20080;-86
2024/01/25 12:12:43;;;;;;;1.98;1.88;;;10.30;99.90;;;;;;5005383;28;20022;-84
2024/01/25 12:15:09;;;;;;;1.35;0.68;;;10.20;99.90;;;;;;5007020;28;20386;-85
2024/01/25 12:17:41;;;;;;;0.30;0.30;;;10.40;99.90;;;;;;5014993;28;20045;-86
2024/01/25 12:20:10;;;;;;;11.98;6.55;;;10.50;99.90;;;;;;5006840;28;20017;-82
2024/01/25 12:22:37;;;;;;;5.70;2.90;;;10.50;99.90;;;;;;5001627;28;20034;-85
2024/01/25 12:25:07;;;;;;;2.70;2.08;;;10.50;99.90;;;;;;4999196;28;20038;-85
2024/01/25 12:27:33;;;;;;;8.15;2.65;;;10.50;99.90;;;;;;4996918;28;20018;-85
2024/01/25 12:29:59;;;;;;;2.63;2.05;;;10.50;99.90;;;;;;5009970;28;20390;-83
2024/01/25 12:32:25;;;;;;;0.70;0.70;;;10.50;99.90;;;;;;4998391;28;20018;-84
2024/01/25 12:34:55;;;;;;;0.28;0.28;;;10.60;99.90;;;;;;5011903;28;20491;-86
2024/01/25 12:37:21;;;;;;;5.28;2.47;;;10.70;99.90;;;;;;5010902;28;20125;-86
2024/01/25 12:39:47;;;;;;;5.28;1.40;;;10.50;99.90;;;;;;5009261;28;20113;-85
2024/01/25 12:42:13;;;;;;;0.50;0.50;;;10.50;99.90;;;;;;5013124;28;20037;-86
2024/01/25 12:44:39;;;;;;;5.78;3.03;;;10.60;99.90;;;;;;5014399;28;20022;-86
2024/01/25 12:47:07;;;;;;;1.80;1.67;;;10.80;99.90;;;;;;5013802;28;20037;-84
2024/01/25 12:49:33;;;;;;;18.85;2.25;;;10.80;99.90;;;;;;5002981;28;20121;-83
2024/01/25 12:51:59;;;;;;;3.80;2.30;;;10.60;99.90;;;;;;5005301;28;20504;-85